createdAt,value
2023-11-23T00:02:20.432Z,18.00
2023-11-23T00:04:47.399Z,17.80
2023-11-23T00:07:14.277Z,17.80
2023-11-23T00:09:41.047Z,17.80
2023-11-23T00:12:08.092Z,17.80
2023-11-23T00:14:34.879Z,17.70
2023-11-23T00:17:01.706Z,17.70
2023-11-23T00:19:28.633Z,17.70
2023-11-23T00:21:55.375Z,17.70
2023-11-23T00:24:22.278Z,17.80
2023-11-23T00:26:49.636Z,17.80
2023-11-23T00:29:16.348Z,17.70
2023-11-23T00:31:43.131Z,18.00
2023-11-23T00:34:09.986Z,17.70
2023-11-23T00:36:39.713Z,17.70
2023-11-23T00:39:06.984Z,17.70
2023-11-23T00:41:33.775Z,17.70
2023-11-23T00:44:00.491Z,17.70
2023-11-23T00:46:27.392Z,17.80
2023-11-23T00:48:55.703Z,17.70
2023-11-23T00:51:22.808Z,17.70
2023-11-23T00:53:49.551Z,17.70
2023-11-23T00:56:17.991Z,17.70
2023-11-23T00:58:45.893Z,17.70
2023-11-23T01:01:19.312Z,17.70
2023-11-23T01:03:46.236Z,17.60
2023-11-23T01:06:13.046Z,17.80
2023-11-23T01:08:39.874Z,17.90
2023-11-23T01:11:06.769Z,17.90
2023-11-23T01:13:33.917Z,17.80
2023-11-23T01:16:00.696Z,17.80
2023-11-23T01:18:27.487Z,17.80
2023-11-23T01:20:54.255Z,17.80
2023-11-23T01:23:21.000Z,17.90
2023-11-23T01:25:47.673Z,17.80
2023-11-23T01:28:14.435Z,17.80
2023-11-23T01:30:41.114Z,17.80
2023-11-23T01:33:08.790Z,17.80
2023-11-23T01:35:35.705Z,17.80
2023-11-23T01:38:02.444Z,17.70
2023-11-23T01:40:30.160Z,17.70
2023-11-23T01:43:06.661Z,17.90
2023-11-23T01:45:33.511Z,17.70
2023-11-23T01:48:01.338Z,17.70
2023-11-23T01:50:29.793Z,17.90
2023-11-23T01:52:56.796Z,17.80
2023-11-23T01:55:23.554Z,17.80
2023-11-23T01:57:53.954Z,17.80
2023-11-23T02:00:25.346Z,17.80
2023-11-23T02:02:52.965Z,17.90
2023-11-23T02:05:23.004Z,17.80
2023-11-23T02:07:49.709Z,17.80
2023-11-23T02:10:16.805Z,17.70
2023-11-23T02:12:45.114Z,17.80
2023-11-23T02:15:12.033Z,17.80
2023-11-23T02:17:39.861Z,17.80
2023-11-23T02:20:10.107Z,17.80
2023-11-23T02:22:37.463Z,17.80
2023-11-23T02:25:07.504Z,17.70
2023-11-23T02:27:37.372Z,17.80
2023-11-23T02:30:06.951Z,17.70
2023-11-23T02:32:34.141Z,17.70
2023-11-23T02:35:01.149Z,17.70
2023-11-23T02:37:27.911Z,17.70
2023-11-23T02:39:54.864Z,17.70
2023-11-23T02:42:21.675Z,17.70
2023-11-23T02:44:48.402Z,17.70
2023-11-23T02:47:15.208Z,17.70
2023-11-23T02:49:41.946Z,17.70
2023-11-23T02:52:08.723Z,17.70
2023-11-23T02:54:35.428Z,17.70
2023-11-23T02:57:02.185Z,17.70
2023-11-23T02:59:29.302Z,17.70
2023-11-23T03:01:56.382Z,17.60
2023-11-23T03:04:23.273Z,17.70
2023-11-23T03:06:50.260Z,17.60
2023-11-23T03:09:20.554Z,17.90
2023-11-23T03:11:47.556Z,17.70
2023-11-23T03:14:14.478Z,17.70
2023-11-23T03:16:42.614Z,17.60
2023-11-23T03:19:09.762Z,17.70
2023-11-23T03:21:36.771Z,17.70
2023-11-23T03:24:04.270Z,17.70
2023-11-23T03:26:31.035Z,17.70
2023-11-23T03:28:57.777Z,17.80
2023-11-23T03:31:24.449Z,17.90
2023-11-23T03:33:51.223Z,17.70
2023-11-23T03:36:18.787Z,17.70
2023-11-23T03:38:45.776Z,17.60
2023-11-23T03:41:12.594Z,17.70
2023-11-23T03:43:39.362Z,17.60
2023-11-23T03:46:06.206Z,17.60
2023-11-23T03:48:32.989Z,17.70
2023-11-23T03:50:59.826Z,17.70
2023-11-23T03:53:26.625Z,17.70
2023-11-23T03:55:54.024Z,17.70
2023-11-23T03:58:20.736Z,17.60
2023-11-23T04:00:47.526Z,17.70
2023-11-23T04:03:14.224Z,17.60
2023-11-23T04:05:40.888Z,17.70
2023-11-23T04:08:07.700Z,17.60
2023-11-23T04:10:34.411Z,17.70
2023-11-23T04:13:01.324Z,17.60
2023-11-23T04:15:29.287Z,17.60
2023-11-23T04:17:56.029Z,17.60
2023-11-23T04:20:23.081Z,17.70
2023-11-23T04:22:49.804Z,17.60
2023-11-23T04:25:16.547Z,17.60
2023-11-23T04:27:43.860Z,17.60
2023-11-23T04:30:12.034Z,17.50
2023-11-23T04:32:38.987Z,17.60
2023-11-23T04:35:06.165Z,17.60
2023-11-23T04:37:33.884Z,17.60
2023-11-23T04:40:00.870Z,17.50
2023-11-23T04:42:27.694Z,17.70
2023-11-23T04:44:54.494Z,17.70
2023-11-23T04:47:21.274Z,17.60
2023-11-23T04:49:47.963Z,17.60
2023-11-23T04:52:14.664Z,17.60
2023-11-23T04:54:41.455Z,17.60
2023-11-23T04:57:08.230Z,17.70
2023-11-23T04:59:34.921Z,17.60
2023-11-23T05:02:01.788Z,17.60
2023-11-23T05:04:28.626Z,17.60
2023-11-23T05:06:56.987Z,17.60
2023-11-23T05:09:23.897Z,17.60
2023-11-23T05:11:50.792Z,17.80
2023-11-23T05:14:18.225Z,17.60
2023-11-23T05:16:45.197Z,17.60
2023-11-23T05:19:13.852Z,17.60
2023-11-23T05:21:43.241Z,17.60
2023-11-23T05:24:10.329Z,17.60
2023-11-23T05:26:37.039Z,17.90
2023-11-23T05:29:03.990Z,17.60
2023-11-23T05:31:30.714Z,17.60
2023-11-23T05:33:57.615Z,17.40
2023-11-23T05:36:24.470Z,17.60
2023-11-23T05:38:51.301Z,17.50
2023-11-23T05:41:18.124Z,17.60
2023-11-23T05:43:44.963Z,17.60
2023-11-23T05:46:13.892Z,17.60
2023-11-23T05:48:41.454Z,17.60
2023-11-23T05:51:08.246Z,17.70
2023-11-23T05:53:35.098Z,17.60
2023-11-23T05:56:02.221Z,17.70
2023-11-23T05:58:29.089Z,17.70
2023-11-23T06:01:03.655Z,17.70
2023-11-23T06:03:38.883Z,17.70
2023-11-23T06:06:06.387Z,17.90
2023-11-23T06:08:33.141Z,17.70
2023-11-23T06:10:59.995Z,17.90
2023-11-23T06:13:26.747Z,17.70
2023-11-23T06:15:53.544Z,17.70
2023-11-23T06:18:22.504Z,17.70
2023-11-23T06:20:49.370Z,17.70
2023-11-23T06:23:16.196Z,17.70
2023-11-23T06:25:42.945Z,17.70
2023-11-23T06:28:15.178Z,17.70
2023-11-23T06:30:45.826Z,17.70
2023-11-23T06:33:13.126Z,17.70
2023-11-23T06:35:42.869Z,17.70
2023-11-23T06:38:09.853Z,17.70
2023-11-23T06:40:36.543Z,17.70
2023-11-23T06:43:03.729Z,17.80
2023-11-23T06:45:30.971Z,17.80
2023-11-23T06:47:57.887Z,17.80
2023-11-23T06:50:25.011Z,17.80
2023-11-23T06:52:51.762Z,17.80
2023-11-23T06:55:18.429Z,17.80
2023-11-23T06:57:47.848Z,18.00
2023-11-23T07:00:27.554Z,17.80
2023-11-23T07:02:58.526Z,17.80
2023-11-23T07:05:26.355Z,17.80
2023-11-23T07:07:54.340Z,17.80
2023-11-23T07:10:22.992Z,17.70
2023-11-23T07:12:50.796Z,17.80
2023-11-23T07:15:19.264Z,17.80
2023-11-23T07:17:48.195Z,17.80
2023-11-23T07:20:15.967Z,17.80
2023-11-23T07:22:43.177Z,17.80
2023-11-23T07:25:10.692Z,17.80
2023-11-23T07:27:38.543Z,17.90
2023-11-23T07:30:09.209Z,17.90
2023-11-23T07:32:36.937Z,17.90
2023-11-23T07:35:04.766Z,17.80
2023-11-23T07:37:32.351Z,17.90
2023-11-23T07:39:59.184Z,17.80
2023-11-23T07:42:26.743Z,17.90
2023-11-23T07:44:53.884Z,17.90
2023-11-23T07:47:21.156Z,17.90
2023-11-23T07:49:47.988Z,17.90
2023-11-23T07:52:15.205Z,17.90
2023-11-23T07:54:42.174Z,17.90
2023-11-23T07:57:08.952Z,17.90
2023-11-23T07:59:37.812Z,18.10
2023-11-23T08:02:05.734Z,17.90
2023-11-23T08:04:33.043Z,18.00
2023-11-23T08:07:00.172Z,17.90
2023-11-23T08:09:27.399Z,17.90
2023-11-23T08:11:54.594Z,17.90
2023-11-23T08:14:21.619Z,17.90
2023-11-23T08:16:48.802Z,18.00
2023-11-23T08:19:15.753Z,17.90
2023-11-23T08:21:43.686Z,17.90
2023-11-23T08:24:11.141Z,18.00
2023-11-23T08:26:38.119Z,17.90
2023-11-23T08:29:06.373Z,18.00
2023-11-23T08:31:33.477Z,18.00
2023-11-23T08:34:00.349Z,17.90
2023-11-23T08:36:27.285Z,18.00
2023-11-23T08:38:54.137Z,17.90
2023-11-23T08:41:25.673Z,18.00
2023-11-23T08:43:52.551Z,17.90
2023-11-23T08:46:19.456Z,17.90
2023-11-23T08:48:46.557Z,18.00
2023-11-23T08:51:13.873Z,17.90
2023-11-23T08:53:40.901Z,18.00
2023-11-23T08:56:08.072Z,18.00
2023-11-23T08:58:34.836Z,18.10
2023-11-23T09:01:01.653Z,18.30
2023-11-23T09:03:30.144Z,18.10
2023-11-23T09:05:59.356Z,18.10
2023-11-23T09:08:26.407Z,18.10
2023-11-23T09:10:56.705Z,18.10
2023-11-23T09:13:26.655Z,18.10
2023-11-23T09:15:56.945Z,18.10
2023-11-23T09:18:23.848Z,18.00
2023-11-23T09:20:52.609Z,18.00
2023-11-23T09:23:19.513Z,18.00
2023-11-23T09:25:46.914Z,18.30
2023-11-23T09:28:14.465Z,18.20
2023-11-23T09:30:42.138Z,18.40
2023-11-23T09:33:12.201Z,18.30
2023-11-23T09:35:40.229Z,18.30
2023-11-23T09:38:10.062Z,18.20
2023-11-23T09:40:37.402Z,18.20
2023-11-23T09:43:05.617Z,18.10
2023-11-23T09:45:33.206Z,18.10
2023-11-23T09:48:02.723Z,18.10
2023-11-23T09:50:34.033Z,18.10
2023-11-23T09:53:04.175Z,18.00
2023-11-23T09:55:31.911Z,18.00
2023-11-23T09:57:58.646Z,17.90
2023-11-23T10:00:26.150Z,18.00
2023-11-23T10:02:59.136Z,18.10
2023-11-23T10:05:27.101Z,18.00
2023-11-23T10:07:55.314Z,18.00
2023-11-23T10:10:22.681Z,18.00
2023-11-23T10:12:50.347Z,18.00
2023-11-23T10:15:17.236Z,18.00
2023-11-23T10:17:44.045Z,18.10
2023-11-23T10:20:16.161Z,18.10
2023-11-23T10:22:45.222Z,18.00
2023-11-23T10:25:34.283Z,18.00
2023-11-23T10:28:02.133Z,18.00
2023-11-23T10:30:30.736Z,18.00
2023-11-23T10:32:58.977Z,18.00
2023-11-23T10:35:41.486Z,18.00
2023-11-23T10:38:09.185Z,18.10
2023-11-23T10:40:36.676Z,18.10
2023-11-23T10:43:04.221Z,18.30
2023-11-23T10:45:36.453Z,18.10
2023-11-23T10:48:04.541Z,18.10
2023-11-23T10:50:36.299Z,18.10
2023-11-23T10:53:03.252Z,18.10
2023-11-23T10:55:29.982Z,18.20
2023-11-23T10:58:17.993Z,18.30
2023-11-23T11:00:47.037Z,18.20
2023-11-23T11:03:14.522Z,18.10
2023-11-23T11:05:47.217Z,18.10
2023-11-23T11:08:18.976Z,18.20
2023-11-23T11:10:52.298Z,18.20
2023-11-23T11:13:21.828Z,18.20
2023-11-23T11:15:58.149Z,18.20
2023-11-23T11:18:25.742Z,18.20
2023-11-23T11:21:08.264Z,18.20
2023-11-23T11:23:39.710Z,18.30
2023-11-23T11:26:20.671Z,18.20
2023-11-23T11:29:01.915Z,18.30
2023-11-23T11:31:29.432Z,18.20
2023-11-23T11:33:56.282Z,18.30
2023-11-23T11:36:26.455Z,18.30
2023-11-23T11:38:57.843Z,18.20
2023-11-23T11:41:30.176Z,18.10
2023-11-23T11:43:59.255Z,18.20
2023-11-23T11:46:29.463Z,18.20
2023-11-23T11:48:59.117Z,18.30
2023-11-23T11:51:27.425Z,18.30
2023-11-23T11:53:55.553Z,18.30
2023-11-23T11:56:23.382Z,18.40
2023-11-23T11:58:50.762Z,18.50
2023-11-23T12:01:18.115Z,18.40
2023-11-23T12:03:48.565Z,18.40
2023-11-23T12:06:17.846Z,18.40
2023-11-23T12:08:46.012Z,18.50
2023-11-23T12:11:29.062Z,18.40
2023-11-23T12:13:58.275Z,18.40
2023-11-23T12:16:36.400Z,18.30
2023-11-23T12:19:20.799Z,18.50
2023-11-23T12:21:57.992Z,18.30
2023-11-23T12:24:29.388Z,18.30
2023-11-23T12:26:56.764Z,18.20
2023-11-23T12:29:24.845Z,18.30
2023-11-23T12:31:51.952Z,18.30
2023-11-23T12:34:22.466Z,18.30
2023-11-23T12:36:49.254Z,18.30
2023-11-23T12:39:16.808Z,18.20
2023-11-23T12:41:52.694Z,18.30
2023-11-23T12:44:21.882Z,18.30
2023-11-23T12:46:49.097Z,18.40
2023-11-23T12:49:15.877Z,18.30
2023-11-23T12:51:42.884Z,18.20
2023-11-23T12:54:09.694Z,18.30
2023-11-23T12:56:38.531Z,18.20
2023-11-23T12:59:08.536Z,18.40
2023-11-23T13:01:39.470Z,18.30
2023-11-23T13:04:08.819Z,18.20
2023-11-23T13:06:37.297Z,18.30
2023-11-23T13:09:05.134Z,18.20
2023-11-23T13:11:32.000Z,18.30
2023-11-23T13:13:59.133Z,18.20
2023-11-23T13:16:25.842Z,18.30
2023-11-23T13:19:06.443Z,18.10
2023-11-23T13:21:39.769Z,18.30
2023-11-23T13:24:07.797Z,18.20
2023-11-23T13:26:35.385Z,18.20
2023-11-23T13:29:02.671Z,18.20
2023-11-23T13:31:29.581Z,18.20
2023-11-23T13:33:57.040Z,18.30
2023-11-23T13:36:24.104Z,18.20
2023-11-23T13:38:51.576Z,18.10
2023-11-23T13:41:19.637Z,18.20
2023-11-23T13:43:46.924Z,18.10
2023-11-23T13:46:15.546Z,18.20
2023-11-23T13:48:44.653Z,18.20
2023-11-23T13:51:13.840Z,18.10
2023-11-23T13:53:40.677Z,18.20
2023-11-23T13:56:11.251Z,18.10
2023-11-23T13:58:38.566Z,18.10
2023-11-23T14:01:05.340Z,18.20
2023-11-23T14:03:33.442Z,18.20
2023-11-23T14:06:00.529Z,18.20
2023-11-23T14:08:27.436Z,18.10
2023-11-23T14:10:54.274Z,18.10
2023-11-23T14:13:21.107Z,18.20
2023-11-23T14:15:48.346Z,18.20
2023-11-23T14:18:17.383Z,18.10
2023-11-23T14:20:44.698Z,18.10
2023-11-23T14:23:14.258Z,18.10
2023-11-23T14:25:43.701Z,18.10
2023-11-23T14:28:15.914Z,18.10
2023-11-23T14:30:47.234Z,18.10
2023-11-23T14:33:14.771Z,18.10
2023-11-23T14:35:44.851Z,18.00
2023-11-23T14:38:15.950Z,18.20
2023-11-23T14:40:47.683Z,18.20
2023-11-23T14:43:19.191Z,18.10
2023-11-23T14:45:46.326Z,18.10
2023-11-23T14:48:13.519Z,18.10
2023-11-23T14:50:41.392Z,18.20
2023-11-23T14:53:08.192Z,18.20
2023-11-23T14:55:35.643Z,18.30
2023-11-23T14:58:02.695Z,18.20
2023-11-23T15:00:30.777Z,18.30
2023-11-23T15:02:58.101Z,18.00
2023-11-23T15:05:24.816Z,18.30
2023-11-23T15:07:53.643Z,18.30
2023-11-23T15:10:21.722Z,18.20
2023-11-23T15:12:53.350Z,18.20
2023-11-23T15:15:21.367Z,18.30
2023-11-23T15:17:50.121Z,18.30
2023-11-23T15:20:17.244Z,18.30
2023-11-23T15:22:44.003Z,18.30
2023-11-23T15:25:13.706Z,18.30
2023-11-23T15:27:43.112Z,18.30
2023-11-23T15:30:12.060Z,18.30
2023-11-23T15:32:43.381Z,18.20
2023-11-23T15:35:13.720Z,18.30
2023-11-23T15:37:41.254Z,18.50
2023-11-23T15:40:11.757Z,18.20
2023-11-23T15:42:38.691Z,18.30
2023-11-23T15:45:06.512Z,18.30
2023-11-23T15:47:33.495Z,18.30
2023-11-23T15:50:00.316Z,18.30
2023-11-23T15:52:27.202Z,18.30
2023-11-23T15:54:53.884Z,18.30
2023-11-23T15:57:20.628Z,18.30
2023-11-23T15:59:47.351Z,18.30
2023-11-23T16:02:14.835Z,18.30
2023-11-23T16:04:42.955Z,18.20
2023-11-23T16:07:09.720Z,18.20
2023-11-23T16:09:36.509Z,18.30
2023-11-23T16:12:03.543Z,18.20
2023-11-23T16:14:30.264Z,18.00
2023-11-23T16:16:57.822Z,18.10
2023-11-23T16:19:25.345Z,18.20
2023-11-23T16:21:52.963Z,18.20
2023-11-23T16:24:19.726Z,18.10
2023-11-23T16:26:48.044Z,18.20
2023-11-23T16:29:15.976Z,18.30
2023-11-23T16:31:45.659Z,18.50
2023-11-23T16:34:14.456Z,18.30
2023-11-23T16:36:43.344Z,18.30
2023-11-23T16:39:15.973Z,18.30
2023-11-23T16:41:44.654Z,18.30
2023-11-23T16:44:13.794Z,18.30
2023-11-23T16:46:42.690Z,18.30
2023-11-23T16:49:10.346Z,18.20
2023-11-23T16:51:38.607Z,18.30
2023-11-23T16:54:07.045Z,18.30
2023-11-23T16:56:33.930Z,18.30
2023-11-23T16:59:00.637Z,18.30
2023-11-23T17:01:27.352Z,18.20
2023-11-23T17:03:56.304Z,18.30
2023-11-23T17:06:23.575Z,18.40
2023-11-23T17:08:50.307Z,18.20
2023-11-23T17:11:18.411Z,18.30
2023-11-23T17:13:45.414Z,18.30
2023-11-23T17:16:13.050Z,18.30
2023-11-23T17:18:40.469Z,18.20
2023-11-23T17:21:07.430Z,18.20
2023-11-23T17:23:35.317Z,18.20
2023-11-23T17:26:02.222Z,18.30
2023-11-23T17:28:29.021Z,18.00
2023-11-23T17:30:56.078Z,18.20
2023-11-23T17:33:24.298Z,18.30
2023-11-23T17:35:52.898Z,18.30
2023-11-23T17:38:20.095Z,18.30
2023-11-23T17:40:47.251Z,18.30
2023-11-23T17:43:14.196Z,18.20
2023-11-23T17:45:42.944Z,18.20
2023-11-23T17:48:10.064Z,18.20
2023-11-23T17:50:39.558Z,18.20
2023-11-23T17:53:07.819Z,18.20
2023-11-23T17:55:34.648Z,18.30
2023-11-23T17:58:01.504Z,18.10
2023-11-23T18:00:28.974Z,18.20
2023-11-23T18:02:56.197Z,18.30
2023-11-23T18:05:23.029Z,18.20
2023-11-23T18:07:49.766Z,18.20
2023-11-23T18:10:17.237Z,18.20
2023-11-23T18:12:44.407Z,18.20
2023-11-23T18:15:13.011Z,18.30
2023-11-23T18:17:39.953Z,18.20
2023-11-23T18:20:09.186Z,18.10
2023-11-23T18:22:35.992Z,18.20
2023-11-23T18:25:03.361Z,18.20
2023-11-23T18:27:30.183Z,18.20
2023-11-23T18:29:57.408Z,18.20
2023-11-23T18:32:24.239Z,18.30
2023-11-23T18:34:51.107Z,18.20
2023-11-23T18:37:20.690Z,18.30
2023-11-23T18:39:49.113Z,18.30
2023-11-23T18:42:15.938Z,18.20
2023-11-23T18:44:43.072Z,18.20
2023-11-23T18:47:09.966Z,18.20
2023-11-23T18:49:37.237Z,18.30
2023-11-23T18:52:04.370Z,18.30
2023-11-23T18:54:31.250Z,18.30
2023-11-23T18:56:58.225Z,18.30
2023-11-23T18:59:25.532Z,18.30
2023-11-23T19:01:55.249Z,18.30
2023-11-23T19:04:23.604Z,18.30
2023-11-23T19:06:53.444Z,18.40
2023-11-23T19:09:22.928Z,18.30
2023-11-23T19:11:50.555Z,18.30
2023-11-23T19:14:17.411Z,18.30
2023-11-23T19:16:44.242Z,18.20
2023-11-23T19:19:12.625Z,18.40
2023-11-23T19:21:40.158Z,18.40
2023-11-23T19:24:08.807Z,18.40
2023-11-23T19:26:36.122Z,18.30
2023-11-23T19:29:03.910Z,18.40
2023-11-23T19:31:35.509Z,18.40
2023-11-23T19:34:02.626Z,18.40
2023-11-23T19:36:29.854Z,18.30
2023-11-23T19:38:56.948Z,18.30
2023-11-23T19:41:26.055Z,18.40
2023-11-23T19:43:53.251Z,18.40
2023-11-23T19:46:21.247Z,18.40
2023-11-23T19:48:48.480Z,18.40
2023-11-23T19:51:23.260Z,18.40
2023-11-23T19:53:56.073Z,18.50
2023-11-23T19:56:25.901Z,18.40
2023-11-23T19:58:53.138Z,18.40
2023-11-23T20:01:20.025Z,18.40
2023-11-23T20:03:46.894Z,18.50
2023-11-23T20:06:13.687Z,18.40
2023-11-23T20:08:42.018Z,18.40
2023-11-23T20:11:08.759Z,18.40
2023-11-23T20:13:35.455Z,18.50
2023-11-23T20:16:02.250Z,18.40
2023-11-23T20:18:30.286Z,18.50
2023-11-23T20:20:57.812Z,18.40
2023-11-23T20:23:24.659Z,18.40
2023-11-23T20:25:51.464Z,18.40
2023-11-23T20:28:18.576Z,18.50
2023-11-23T20:30:45.520Z,18.40
2023-11-23T20:33:15.100Z,18.40
2023-11-23T20:35:43.404Z,18.30
2023-11-23T20:38:10.160Z,18.40
2023-11-23T20:40:37.566Z,18.60
2023-11-23T20:43:04.316Z,18.40
2023-11-23T20:45:30.994Z,18.40
2023-11-23T20:47:58.543Z,18.40
2023-11-23T20:50:25.781Z,18.40
2023-11-23T20:52:52.898Z,18.40
2023-11-23T20:55:20.606Z,18.70
2023-11-23T20:57:48.667Z,18.40
2023-11-23T21:00:17.247Z,18.30
2023-11-23T21:02:44.543Z,18.30
2023-11-23T21:05:12.918Z,18.40
2023-11-23T21:07:40.333Z,18.40
2023-11-23T21:10:08.778Z,18.40
2023-11-23T21:12:36.092Z,18.30
2023-11-23T21:15:04.984Z,18.30
2023-11-23T21:17:31.839Z,18.40
2023-11-23T21:19:58.569Z,18.40
2023-11-23T21:22:25.629Z,18.40
2023-11-23T21:24:52.477Z,18.30
2023-11-23T21:27:19.410Z,18.30
2023-11-23T21:29:47.422Z,18.40
2023-11-23T21:32:16.319Z,18.30
2023-11-23T21:34:43.067Z,18.40
2023-11-23T21:37:09.807Z,18.50
2023-11-23T21:39:36.592Z,18.50
2023-11-23T21:42:03.365Z,18.50
2023-11-23T21:44:30.720Z,18.50
2023-11-23T21:46:57.518Z,18.50
2023-11-23T21:49:24.354Z,18.50
2023-11-23T21:51:51.065Z,18.50
2023-11-23T21:54:17.908Z,18.40
2023-11-23T21:56:45.532Z,18.50
2023-11-23T21:59:13.136Z,18.50
2023-11-23T22:01:39.931Z,18.50
2023-11-23T22:04:06.873Z,18.50
2023-11-23T22:06:33.620Z,18.50
2023-11-23T22:09:01.873Z,18.50
2023-11-23T22:11:28.524Z,18.40
2023-11-23T22:13:55.279Z,18.50
2023-11-23T22:16:22.008Z,18.50
2023-11-23T22:18:48.977Z,18.50
2023-11-23T22:21:16.087Z,18.50
2023-11-23T22:23:42.877Z,18.50
2023-11-23T22:26:10.389Z,18.50
2023-11-23T22:28:37.381Z,18.50
2023-11-23T22:31:10.873Z,18.50
2023-11-23T22:33:38.974Z,18.50
2023-11-23T22:36:06.153Z,18.60
2023-11-23T22:38:33.169Z,18.70
2023-11-23T22:41:00.220Z,18.60
2023-11-23T22:43:27.378Z,18.60
2023-11-23T22:45:54.423Z,18.60
2023-11-23T22:48:21.730Z,18.60
2023-11-23T22:50:48.438Z,18.60
2023-11-23T22:53:15.106Z,18.60
2023-11-23T22:55:42.052Z,18.60
2023-11-23T22:58:09.416Z,18.60
2023-11-23T23:00:39.078Z,18.60
2023-11-23T23:03:06.090Z,18.60
2023-11-23T23:05:33.013Z,18.60
2023-11-23T23:07:59.892Z,18.70
2023-11-23T23:10:28.190Z,18.50
2023-11-23T23:12:55.409Z,18.60
2023-11-23T23:15:22.847Z,18.60
2023-11-23T23:17:52.440Z,18.70
2023-11-23T23:20:19.732Z,18.60
2023-11-23T23:22:46.477Z,18.60
2023-11-23T23:25:13.884Z,18.60
2023-11-23T23:27:41.282Z,18.70
2023-11-23T23:30:09.990Z,18.60
2023-11-23T23:32:38.150Z,18.60
2023-11-23T23:35:10.754Z,18.70
2023-11-23T23:37:41.000Z,18.70
2023-11-23T23:40:10.296Z,18.70
2023-11-23T23:42:37.674Z,18.60
2023-11-23T23:45:05.814Z,18.70
2023-11-23T23:47:32.616Z,18.60
2023-11-23T23:49:59.438Z,18.70
2023-11-23T23:52:26.092Z,18.70
2023-11-23T23:54:53.001Z,18.70
2023-11-23T23:57:19.807Z,18.80
2023-11-23T23:59:49.726Z,18.90
